sensor_id;sensor_type;location;lat;lon;timestamp;P1;durP1;ratioP1;P2;durP2;ratioP2
59008;SDS011;44794;42.652;23.318;2023-02-28T00:00:27;63.53;;;25.65;;
59008;SDS011;44794;42.652;23.318;2023-02-28T00:02:53;56.83;;;25.83;;
59008;SDS011;44794;42.652;23.318;2023-02-28T00:05:19;57.88;;;24.73;;
59008;SDS011;44794;42.652;23.318;2023-02-28T00:07:46;52.45;;;23.40;;
59008;SDS011;44794;42.652;23.318;2023-02-28T00:10:14;49.33;;;23.88;;
59008;SDS011;44794;42.652;23.318;2023-02-28T00:12:45;51.30;;;22.80;;
59008;SDS011;44794;42.652;23.318;2023-02-28T00:15:14;47.17;;;20.83;;
59008;SDS011;44794;42.652;23.318;2023-02-28T00:17:40;46.75;;;21.52;;
59008;SDS011;44794;42.652;23.318;2023-02-28T00:20:06;39.70;;;19.85;;
59008;SDS011;44794;42.652;23.318;2023-02-28T00:22:37;43.08;;;19.55;;
59008;SDS011;44794;42.652;23.318;2023-02-28T00:25:04;50.05;;;20.15;;
59008;SDS011;44794;42.652;23.318;2023-02-28T00:27:31;41.75;;;18.85;;
59008;SDS011;44794;42.652;23.318;2023-02-28T00:29:57;37.72;;;17.75;;
59008;SDS011;44794;42.652;23.318;2023-02-28T00:32:23;40.55;;;18.20;;
59008;SDS011;44794;42.652;23.318;2023-02-28T00:34:48;36.90;;;17.58;;
59008;SDS011;44794;42.652;23.318;2023-02-28T00:37:14;35.92;;;18.35;;
59008;SDS011;44794;42.652;23.318;2023-02-28T00:39:39;34.17;;;17.30;;
59008;SDS011;44794;42.652;23.318;2023-02-28T00:42:06;36.83;;;17.42;;
59008;SDS011;44794;42.652;23.318;2023-02-28T00:44:32;36.45;;;16.92;;
59008;SDS011;44794;42.652;23.318;2023-02-28T00:46:58;39.33;;;17.90;;
59008;SDS011;44794;42.652;23.318;2023-02-28T00:49:25;42.15;;;19.98;;
59008;SDS011;44794;42.652;23.318;2023-02-28T00:51:51;48.85;;;21.70;;
59008;SDS011;44794;42.652;23.318;2023-02-28T00:54:17;48.35;;;22.77;;
59008;SDS011;44794;42.652;23.318;2023-02-28T00:56:43;54.08;;;22.52;;
59008;SDS011;44794;42.652;23.318;2023-02-28T00:59:08;46.05;;;22.30;;
59008;SDS011;44794;42.652;23.318;2023-02-28T01:01:34;51.15;;;23.23;;
59008;SDS011;44794;42.652;23.318;2023-02-28T01:04:00;48.72;;;22.50;;
59008;SDS011;44794;42.652;23.318;2023-02-28T01:06:25;49.42;;;22.58;;
59008;SDS011;44794;42.652;23.318;2023-02-28T01:08:51;55.58;;;23.58;;
59008;SDS011;44794;42.652;23.318;2023-02-28T01:11:17;58.15;;;25.90;;
59008;SDS011;44794;42.652;23.318;2023-02-28T01:13:44;53.88;;;24.17;;
59008;SDS011;44794;42.652;23.318;2023-02-28T01:16:10;55.63;;;25.90;;
59008;SDS011;44794;42.652;23.318;2023-02-28T01:18:36;61.50;;;27.75;;
59008;SDS011;44794;42.652;23.318;2023-02-28T01:21:06;56.80;;;25.35;;
59008;SDS011;44794;42.652;23.318;2023-02-28T01:23:32;54.55;;;23.98;;
59008;SDS011;44794;42.652;23.318;2023-02-28T01:26:02;64.47;;;27.25;;
59008;SDS011;44794;42.652;23.318;2023-02-28T01:28:32;69.65;;;27.67;;
59008;SDS011;44794;42.652;23.318;2023-02-28T01:30:57;71.07;;;28.90;;
59008;SDS011;44794;42.652;23.318;2023-02-28T01:33:22;76.70;;;29.73;;
59008;SDS011;44794;42.652;23.318;2023-02-28T01:35:48;73.63;;;27.95;;
59008;SDS011;44794;42.652;23.318;2023-02-28T01:38:13;75.88;;;30.77;;
59008;SDS011;44794;42.652;23.318;2023-02-28T01:40:39;74.93;;;29.65;;
59008;SDS011;44794;42.652;23.318;2023-02-28T01:43:09;73.38;;;30.17;;
59008;SDS011;44794;42.652;23.318;2023-02-28T01:45:45;69.50;;;29.02;;
59008;SDS011;44794;42.652;23.318;2023-02-28T01:48:10;72.78;;;29.38;;
59008;SDS011;44794;42.652;23.318;2023-02-28T01:50:38;74.10;;;29.65;;
59008;SDS011;44794;42.652;23.318;2023-02-28T01:53:07;77.57;;;31.42;;
59008;SDS011;44794;42.652;23.318;2023-02-28T01:55:37;78.72;;;30.92;;
59008;SDS011;44794;42.652;23.318;2023-02-28T01:58:05;79.57;;;31.58;;
59008;SDS011;44794;42.652;23.318;2023-02-28T02:00:33;75.38;;;31.13;;
59008;SDS011;44794;42.652;23.318;2023-02-28T02:03:01;71.88;;;29.77;;
59008;SDS011;44794;42.652;23.318;2023-02-28T02:05:33;78.57;;;30.80;;
59008;SDS011;44794;42.652;23.318;2023-02-28T02:08:03;69.72;;;30.90;;
59008;SDS011;44794;42.652;23.318;2023-02-28T02:10:32;80.75;;;31.27;;
59008;SDS011;44794;42.652;23.318;2023-02-28T02:15:40;74.00;;;31.27;;
59008;SDS011;44794;42.652;23.318;2023-02-28T02:26:33;101.13;;;39.10;;
59008;SDS011;44794;42.652;23.318;2023-02-28T02:31:56;112.93;;;41.83;;
59008;SDS011;44794;42.652;23.318;2023-02-28T02:37:06;111.43;;;40.83;;
59008;SDS011;44794;42.652;23.318;2023-02-28T02:39:44;203.48;;;38.28;;
59008;SDS011;44794;42.652;23.318;2023-02-28T02:42:25;136.98;;;39.22;;
59008;SDS011;44794;42.652;23.318;2023-02-28T02:45:11;106.97;;;37.35;;
59008;SDS011;44794;42.652;23.318;2023-02-28T02:47:42;152.73;;;36.90;;
59008;SDS011;44794;42.652;23.318;2023-02-28T02:50:12;140.20;;;35.00;;
59008;SDS011;44794;42.652;23.318;2023-02-28T02:52:43;129.50;;;37.33;;
59008;SDS011;44794;42.652;23.318;2023-02-28T02:55:13;134.98;;;37.30;;
59008;SDS011;44794;42.652;23.318;2023-02-28T02:57:58;170.90;;;36.17;;
59008;SDS011;44794;42.652;23.318;2023-02-28T03:00:29;202.63;;;38.95;;
59008;SDS011;44794;42.652;23.318;2023-02-28T03:02:59;149.77;;;41.58;;
59008;SDS011;44794;42.652;23.318;2023-02-28T03:05:27;138.73;;;43.03;;
59008;SDS011;44794;42.652;23.318;2023-02-28T03:07:59;152.18;;;41.40;;
59008;SDS011;44794;42.652;23.318;2023-02-28T03:12:55;173.95;;;43.42;;
59008;SDS011;44794;42.652;23.318;2023-02-28T03:15:33;143.43;;;43.03;;
59008;SDS011;44794;42.652;23.318;2023-02-28T03:20:57;127.75;;;39.83;;
59008;SDS011;44794;42.652;23.318;2023-02-28T03:23:51;222.30;;;42.20;;
59008;SDS011;44794;42.652;23.318;2023-02-28T03:26:31;214.27;;;42.00;;
59008;SDS011;44794;42.652;23.318;2023-02-28T03:29:02;218.90;;;44.28;;
59008;SDS011;44794;42.652;23.318;2023-02-28T03:31:39;280.48;;;45.95;;
59008;SDS011;44794;42.652;23.318;2023-02-28T03:34:14;244.02;;;45.83;;
59008;SDS011;44794;42.652;23.318;2023-02-28T03:36:49;145.02;;;43.88;;
59008;SDS011;44794;42.652;23.318;2023-02-28T03:42:02;130.32;;;42.25;;
59008;SDS011;44794;42.652;23.318;2023-02-28T03:44:44;135.57;;;43.50;;
59008;SDS011;44794;42.652;23.318;2023-02-28T03:47:37;198.25;;;44.58;;
59008;SDS011;44794;42.652;23.318;2023-02-28T03:50:24;146.10;;;43.95;;
59008;SDS011;44794;42.652;23.318;2023-02-28T03:52:58;144.07;;;43.28;;
59008;SDS011;44794;42.652;23.318;2023-02-28T03:55:42;125.63;;;40.15;;
59008;SDS011;44794;42.652;23.318;2023-02-28T04:03:42;94.88;;;31.60;;
59008;SDS011;44794;42.652;23.318;2023-02-28T04:06:09;99.82;;;32.95;;
59008;SDS011;44794;42.652;23.318;2023-02-28T04:08:41;106.38;;;34.97;;
59008;SDS011;44794;42.652;23.318;2023-02-28T04:11:11;113.72;;;36.58;;
59008;SDS011;44794;42.652;23.318;2023-02-28T04:13:38;104.07;;;35.33;;
59008;SDS011;44794;42.652;23.318;2023-02-28T04:16:07;135.90;;;39.50;;
59008;SDS011;44794;42.652;23.318;2023-02-28T04:18:37;149.07;;;40.88;;
59008;SDS011;44794;42.652;23.318;2023-02-28T04:21:08;231.25;;;42.38;;
59008;SDS011;44794;42.652;23.318;2023-02-28T04:23:34;142.68;;;40.78;;
59008;SDS011;44794;42.652;23.318;2023-02-28T04:25:59;124.20;;;40.20;;
59008;SDS011;44794;42.652;23.318;2023-02-28T04:28:25;125.78;;;40.50;;
59008;SDS011;44794;42.652;23.318;2023-02-28T04:30:57;114.55;;;37.10;;
59008;SDS011;44794;42.652;23.318;2023-02-28T04:33:23;133.95;;;38.78;;
59008;SDS011;44794;42.652;23.318;2023-02-28T04:35:57;130.85;;;40.88;;
59008;SDS011;44794;42.652;23.318;2023-02-28T04:38:25;128.52;;;36.30;;
59008;SDS011;44794;42.652;23.318;2023-02-28T04:40:51;104.43;;;34.10;;
59008;SDS011;44794;42.652;23.318;2023-02-28T04:43:16;94.22;;;31.42;;
59008;SDS011;44794;42.652;23.318;2023-02-28T04:45:42;87.28;;;29.83;;
59008;SDS011;44794;42.652;23.318;2023-02-28T04:48:07;84.88;;;29.25;;
59008;SDS011;44794;42.652;23.318;2023-02-28T04:50:32;94.13;;;32.17;;
59008;SDS011;44794;42.652;23.318;2023-02-28T04:52:58;91.50;;;29.60;;
59008;SDS011;44794;42.652;23.318;2023-02-28T04:55:23;88.55;;;29.75;;
59008;SDS011;44794;42.652;23.318;2023-02-28T04:57:49;89.15;;;29.70;;
59008;SDS011;44794;42.652;23.318;2023-02-28T05:00:14;89.53;;;30.63;;
59008;SDS011;44794;42.652;23.318;2023-02-28T05:02:42;88.70;;;31.27;;
59008;SDS011;44794;42.652;23.318;2023-02-28T05:05:07;80.97;;;30.52;;
59008;SDS011;44794;42.652;23.318;2023-02-28T05:07:33;84.63;;;30.58;;
59008;SDS011;44794;42.652;23.318;2023-02-28T05:09:59;80.38;;;30.00;;
59008;SDS011;44794;42.652;23.318;2023-02-28T05:12:24;82.47;;;29.58;;
59008;SDS011;44794;42.652;23.318;2023-02-28T05:14:50;89.28;;;30.23;;
59008;SDS011;44794;42.652;23.318;2023-02-28T05:17:15;87.25;;;30.35;;
59008;SDS011;44794;42.652;23.318;2023-02-28T05:19:40;84.90;;;28.70;;
59008;SDS011;44794;42.652;23.318;2023-02-28T05:22:10;73.65;;;28.05;;
59008;SDS011;44794;42.652;23.318;2023-02-28T05:24:39;81.60;;;28.02;;
59008;SDS011;44794;42.652;23.318;2023-02-28T05:27:05;68.85;;;27.48;;
59008;SDS011;44794;42.652;23.318;2023-02-28T05:29:30;81.05;;;28.63;;
59008;SDS011;44794;42.652;23.318;2023-02-28T05:31:55;84.93;;;29.30;;
59008;SDS011;44794;42.652;23.318;2023-02-28T05:34:21;82.28;;;27.85;;
59008;SDS011;44794;42.652;23.318;2023-02-28T05:36:46;76.00;;;27.45;;
59008;SDS011;44794;42.652;23.318;2023-02-28T05:39:12;78.03;;;28.90;;
59008;SDS011;44794;42.652;23.318;2023-02-28T05:41:38;83.57;;;29.90;;
59008;SDS011;44794;42.652;23.318;2023-02-28T05:44:04;79.25;;;29.83;;
59008;SDS011;44794;42.652;23.318;2023-02-28T05:46:29;68.53;;;27.30;;
59008;SDS011;44794;42.652;23.318;2023-02-28T05:48:55;72.05;;;26.95;;
59008;SDS011;44794;42.652;23.318;2023-02-28T05:51:22;66.28;;;27.20;;
59008;SDS011;44794;42.652;23.318;2023-02-28T05:53:48;74.80;;;29.17;;
59008;SDS011;44794;42.652;23.318;2023-02-28T05:56:14;164.13;;;32.03;;
59008;SDS011;44794;42.652;23.318;2023-02-28T05:58:40;74.82;;;29.20;;
59008;SDS011;44794;42.652;23.318;2023-02-28T06:03:55;72.03;;;30.77;;
59008;SDS011;44794;42.652;23.318;2023-02-28T06:06:21;79.38;;;32.35;;
59008;SDS011;44794;42.652;23.318;2023-02-28T06:08:46;91.22;;;35.17;;
59008;SDS011;44794;42.652;23.318;2023-02-28T06:11:12;157.02;;;36.70;;
59008;SDS011;44794;42.652;23.318;2023-02-28T06:13:37;109.53;;;37.17;;
59008;SDS011;44794;42.652;23.318;2023-02-28T06:16:03;94.32;;;36.08;;
59008;SDS011;44794;42.652;23.318;2023-02-28T06:18:28;95.80;;;37.47;;
59008;SDS011;44794;42.652;23.318;2023-02-28T06:20:54;103.25;;;40.33;;
59008;SDS011;44794;42.652;23.318;2023-02-28T06:23:20;104.18;;;39.17;;
59008;SDS011;44794;42.652;23.318;2023-02-28T06:25:47;96.50;;;38.70;;
59008;SDS011;44794;42.652;23.318;2023-02-28T06:28:12;94.43;;;37.80;;
59008;SDS011;44794;42.652;23.318;2023-02-28T06:30:38;94.13;;;39.13;;
59008;SDS011;44794;42.652;23.318;2023-02-28T06:33:04;84.00;;;36.28;;
59008;SDS011;44794;42.652;23.318;2023-02-28T06:35:29;84.35;;;37.45;;
59008;SDS011;44794;42.652;23.318;2023-02-28T06:37:55;87.05;;;36.08;;
59008;SDS011;44794;42.652;23.318;2023-02-28T06:40:20;86.38;;;36.33;;
59008;SDS011;44794;42.652;23.318;2023-02-28T06:42:46;88.78;;;38.08;;
59008;SDS011;44794;42.652;23.318;2023-02-28T06:45:11;80.40;;;36.60;;
59008;SDS011;44794;42.652;23.318;2023-02-28T06:47:37;82.72;;;36.65;;
59008;SDS011;44794;42.652;23.318;2023-02-28T06:50:04;85.00;;;35.83;;
59008;SDS011;44794;42.652;23.318;2023-02-28T06:52:30;76.20;;;35.40;;
59008;SDS011;44794;42.652;23.318;2023-02-28T06:54:55;73.15;;;34.65;;
59008;SDS011;44794;42.652;23.318;2023-02-28T06:57:27;80.68;;;35.53;;
59008;SDS011;44794;42.652;23.318;2023-02-28T07:00:00;81.10;;;36.45;;
59008;SDS011;44794;42.652;23.318;2023-02-28T07:02:27;78.55;;;36.00;;
59008;SDS011;44794;42.652;23.318;2023-02-28T07:04:53;81.35;;;36.58;;
59008;SDS011;44794;42.652;23.318;2023-02-28T07:07:19;76.93;;;36.45;;
59008;SDS011;44794;42.652;23.318;2023-02-28T07:09:44;81.60;;;36.00;;
59008;SDS011;44794;42.652;23.318;2023-02-28T07:12:10;90.47;;;38.22;;
59008;SDS011;44794;42.652;23.318;2023-02-28T07:14:36;81.97;;;36.47;;
59008;SDS011;44794;42.652;23.318;2023-02-28T07:17:02;89.80;;;38.55;;
59008;SDS011;44794;42.652;23.318;2023-02-28T07:19:28;77.15;;;37.33;;
59008;SDS011;44794;42.652;23.318;2023-02-28T07:21:53;86.90;;;39.30;;
59008;SDS011;44794;42.652;23.318;2023-02-28T07:24:19;79.60;;;38.15;;
59008;SDS011;44794;42.652;23.318;2023-02-28T07:26:44;84.47;;;39.35;;
59008;SDS011;44794;42.652;23.318;2023-02-28T07:29:10;80.18;;;37.08;;
59008;SDS011;44794;42.652;23.318;2023-02-28T07:31:35;83.32;;;37.45;;
59008;SDS011;44794;42.652;23.318;2023-02-28T07:34:00;76.60;;;35.10;;
59008;SDS011;44794;42.652;23.318;2023-02-28T07:36:27;72.30;;;34.75;;
59008;SDS011;44794;42.652;23.318;2023-02-28T07:38:52;66.75;;;34.13;;
59008;SDS011;44794;42.652;23.318;2023-02-28T07:41:19;73.65;;;34.97;;
59008;SDS011;44794;42.652;23.318;2023-02-28T07:43:46;72.00;;;33.72;;
59008;SDS011;44794;42.652;23.318;2023-02-28T07:46:12;73.45;;;33.70;;
59008;SDS011;44794;42.652;23.318;2023-02-28T07:48:43;71.05;;;33.38;;
59008;SDS011;44794;42.652;23.318;2023-02-28T07:51:09;75.32;;;35.13;;
59008;SDS011;44794;42.652;23.318;2023-02-28T07:53:35;72.93;;;33.92;;
59008;SDS011;44794;42.652;23.318;2023-02-28T07:56:01;72.05;;;34.38;;
59008;SDS011;44794;42.652;23.318;2023-02-28T07:58:28;71.57;;;34.38;;
59008;SDS011;44794;42.652;23.318;2023-02-28T08:00:54;69.55;;;34.38;;
59008;SDS011;44794;42.652;23.318;2023-02-28T08:03:21;73.03;;;33.40;;
59008;SDS011;44794;42.652;23.318;2023-02-28T08:05:48;75.60;;;34.85;;
59008;SDS011;44794;42.652;23.318;2023-02-28T08:08:14;73.07;;;34.40;;
59008;SDS011;44794;42.652;23.318;2023-02-28T08:10:40;78.35;;;35.60;;
59008;SDS011;44794;42.652;23.318;2023-02-28T08:13:06;78.47;;;35.42;;
59008;SDS011;44794;42.652;23.318;2023-02-28T08:15:32;68.68;;;33.38;;
59008;SDS011;44794;42.652;23.318;2023-02-28T08:17:57;71.00;;;33.45;;
59008;SDS011;44794;42.652;23.318;2023-02-28T08:20:23;66.32;;;32.70;;
59008;SDS011;44794;42.652;23.318;2023-02-28T08:22:50;71.85;;;34.05;;
59008;SDS011;44794;42.652;23.318;2023-02-28T08:25:15;78.15;;;34.72;;
59008;SDS011;44794;42.652;23.318;2023-02-28T08:27:41;65.68;;;31.77;;
59008;SDS011;44794;42.652;23.318;2023-02-28T08:30:07;72.90;;;33.45;;
59008;SDS011;44794;42.652;23.318;2023-02-28T08:32:35;71.88;;;33.92;;
59008;SDS011;44794;42.652;23.318;2023-02-28T08:35:00;76.10;;;35.45;;
59008;SDS011;44794;42.652;23.318;2023-02-28T08:37:26;73.80;;;33.75;;
59008;SDS011;44794;42.652;23.318;2023-02-28T08:39:52;62.15;;;32.65;;
59008;SDS011;44794;42.652;23.318;2023-02-28T08:42:17;59.22;;;30.75;;
59008;SDS011;44794;42.652;23.318;2023-02-28T08:44:43;74.93;;;33.30;;
59008;SDS011;44794;42.652;23.318;2023-02-28T08:47:08;76.07;;;34.40;;
59008;SDS011;44794;42.652;23.318;2023-02-28T08:49:33;72.80;;;35.40;;
59008;SDS011;44794;42.652;23.318;2023-02-28T08:51:59;72.78;;;36.17;;
59008;SDS011;44794;42.652;23.318;2023-02-28T08:54:24;77.85;;;36.65;;
59008;SDS011;44794;42.652;23.318;2023-02-28T08:56:50;74.78;;;37.15;;
59008;SDS011;44794;42.652;23.318;2023-02-28T08:59:15;78.53;;;37.15;;
59008;SDS011;44794;42.652;23.318;2023-02-28T09:01:41;69.07;;;34.35;;
59008;SDS011;44794;42.652;23.318;2023-02-28T09:04:08;77.32;;;37.10;;
59008;SDS011;44794;42.652;23.318;2023-02-28T09:06:35;82.00;;;36.45;;
59008;SDS011;44794;42.652;23.318;2023-02-28T09:09:01;86.55;;;39.50;;
59008;SDS011;44794;42.652;23.318;2023-02-28T09:11:29;88.72;;;41.00;;
59008;SDS011;44794;42.652;23.318;2023-02-28T09:13:54;99.80;;;44.00;;
59008;SDS011;44794;42.652;23.318;2023-02-28T09:16:23;105.72;;;43.53;;
59008;SDS011;44794;42.652;23.318;2023-02-28T09:18:49;104.40;;;44.08;;
59008;SDS011;44794;42.652;23.318;2023-02-28T09:21:15;104.35;;;45.60;;
59008;SDS011;44794;42.652;23.318;2023-02-28T09:23:42;105.85;;;45.20;;
59008;SDS011;44794;42.652;23.318;2023-02-28T09:26:15;103.00;;;44.45;;
59008;SDS011;44794;42.652;23.318;2023-02-28T09:28:42;94.30;;;42.83;;
59008;SDS011;44794;42.652;23.318;2023-02-28T09:31:12;99.70;;;44.58;;
59008;SDS011;44794;42.652;23.318;2023-02-28T09:36:05;91.78;;;42.13;;
59008;SDS011;44794;42.652;23.318;2023-02-28T09:38:30;87.70;;;40.60;;
59008;SDS011;44794;42.652;23.318;2023-02-28T09:40:57;85.72;;;39.92;;
59008;SDS011;44794;42.652;23.318;2023-02-28T09:43:26;79.65;;;38.85;;
59008;SDS011;44794;42.652;23.318;2023-02-28T09:46:04;80.00;;;38.25;;
59008;SDS011;44794;42.652;23.318;2023-02-28T09:48:35;81.85;;;37.47;;
59008;SDS011;44794;42.652;23.318;2023-02-28T09:51:23;77.25;;;37.35;;
59008;SDS011;44794;42.652;23.318;2023-02-28T09:53:55;77.32;;;38.17;;
59008;SDS011;44794;42.652;23.318;2023-02-28T09:56:22;74.57;;;36.60;;
59008;SDS011;44794;42.652;23.318;2023-02-28T09:59:13;77.80;;;38.55;;
59008;SDS011;44794;42.652;23.318;2023-02-28T10:10:17;51.20;;;25.65;;
59008;SDS011;44794;42.652;23.318;2023-02-28T10:12:47;52.88;;;21.92;;
59008;SDS011;44794;42.652;23.318;2023-02-28T10:15:17;34.33;;;16.13;;
59008;SDS011;44794;42.652;23.318;2023-02-28T10:17:47;33.42;;;17.27;;
59008;SDS011;44794;42.652;23.318;2023-02-28T10:20:20;35.20;;;16.77;;
59008;SDS011;44794;42.652;23.318;2023-02-28T10:25:36;33.22;;;15.98;;
59008;SDS011;44794;42.652;23.318;2023-02-28T10:28:12;32.05;;;16.05;;
59008;SDS011;44794;42.652;23.318;2023-02-28T10:30:52;32.40;;;16.20;;
59008;SDS011;44794;42.652;23.318;2023-02-28T10:33:29;34.95;;;16.55;;
59008;SDS011;44794;42.652;23.318;2023-02-28T10:35:57;31.25;;;14.68;;
59008;SDS011;44794;42.652;23.318;2023-02-28T10:38:24;28.92;;;14.95;;
59008;SDS011;44794;42.652;23.318;2023-02-28T10:41:01;31.92;;;14.43;;
59008;SDS011;44794;42.652;23.318;2023-02-28T10:43:32;32.88;;;14.20;;
59008;SDS011;44794;42.652;23.318;2023-02-28T10:46:02;28.83;;;13.25;;
59008;SDS011;44794;42.652;23.318;2023-02-28T10:51:26;30.95;;;15.45;;
59008;SDS011;44794;42.652;23.318;2023-02-28T10:54:01;31.77;;;14.93;;
59008;SDS011;44794;42.652;23.318;2023-02-28T10:56:28;28.40;;;13.68;;
59008;SDS011;44794;42.652;23.318;2023-02-28T11:03:57;30.90;;;14.40;;
59008;SDS011;44794;42.652;23.318;2023-02-28T11:06:23;34.65;;;15.40;;
59008;SDS011;44794;42.652;23.318;2023-02-28T11:08:53;36.33;;;15.55;;
59008;SDS011;44794;42.652;23.318;2023-02-28T11:11:21;38.10;;;16.80;;
59008;SDS011;44794;42.652;23.318;2023-02-28T11:13:50;42.50;;;17.65;;
59008;SDS011;44794;42.652;23.318;2023-02-28T11:16:18;37.03;;;16.23;;
59008;SDS011;44794;42.652;23.318;2023-02-28T11:21:32;30.02;;;15.13;;
59008;SDS011;44794;42.652;23.318;2023-02-28T11:26:46;37.90;;;17.05;;
59008;SDS011;44794;42.652;23.318;2023-02-28T11:29:27;34.90;;;16.60;;
59008;SDS011;44794;42.652;23.318;2023-02-28T11:34:36;35.13;;;16.23;;
59008;SDS011;44794;42.652;23.318;2023-02-28T11:37:03;35.28;;;15.63;;
59008;SDS011;44794;42.652;23.318;2023-02-28T11:39:30;36.30;;;16.92;;
59008;SDS011;44794;42.652;23.318;2023-02-28T11:44:43;31.98;;;17.05;;
59008;SDS011;44794;42.652;23.318;2023-02-28T11:50:31;39.45;;;17.42;;
59008;SDS011;44794;42.652;23.318;2023-02-28T11:53:21;35.28;;;16.67;;
59008;SDS011;44794;42.652;23.318;2023-02-28T12:07:03;33.70;;;17.48;;
59008;SDS011;44794;42.652;23.318;2023-02-28T12:20:59;32.80;;;15.60;;
59008;SDS011;44794;42.652;23.318;2023-02-28T12:34:58;32.95;;;16.08;;
59008;SDS011;44794;42.652;23.318;2023-02-28T12:40:43;37.78;;;17.27;;
59008;SDS011;44794;42.652;23.318;2023-02-28T12:43:13;49.65;;;20.20;;
59008;SDS011;44794;42.652;23.318;2023-02-28T12:45:43;39.15;;;18.67;;
59008;SDS011;44794;42.652;23.318;2023-02-28T12:48:20;35.47;;;17.73;;
59008;SDS011;44794;42.652;23.318;2023-02-28T12:50:51;38.03;;;18.38;;
59008;SDS011;44794;42.652;23.318;2023-02-28T12:53:25;38.50;;;18.38;;
59008;SDS011;44794;42.652;23.318;2023-02-28T13:06:28;34.05;;;16.90;;
59008;SDS011;44794;42.652;23.318;2023-02-28T13:09:14;34.17;;;17.58;;
59008;SDS011;44794;42.652;23.318;2023-02-28T13:11:48;33.72;;;18.10;;
59008;SDS011;44794;42.652;23.318;2023-02-28T13:16:58;39.72;;;16.73;;
59008;SDS011;44794;42.652;23.318;2023-02-28T13:19:31;35.08;;;15.48;;
59008;SDS011;44794;42.652;23.318;2023-02-28T13:21:59;35.70;;;15.38;;
59008;SDS011;44794;42.652;23.318;2023-02-28T13:35:13;31.38;;;14.27;;
59008;SDS011;44794;42.652;23.318;2023-02-28T13:39:50;34.67;;;13.27;;
59008;SDS011;44794;42.652;23.318;2023-02-28T13:47:30;33.50;;;12.90;;
59008;SDS011;44794;42.652;23.318;2023-02-28T13:52:46;29.60;;;11.63;;
59008;SDS011;44794;42.652;23.318;2023-02-28T13:55:24;27.25;;;11.75;;
59008;SDS011;44794;42.652;23.318;2023-02-28T14:06:29;33.80;;;13.65;;
59008;SDS011;44794;42.652;23.318;2023-02-28T14:11:40;29.63;;;12.63;;
59008;SDS011;44794;42.652;23.318;2023-02-28T14:14:08;26.15;;;13.27;;
59008;SDS011;44794;42.652;23.318;2023-02-28T14:16:42;24.55;;;12.25;;
59008;SDS011;44794;42.652;23.318;2023-02-28T14:19:22;32.72;;;12.55;;
59008;SDS011;44794;42.652;23.318;2023-02-28T14:27:57;30.20;;;13.05;;
59008;SDS011;44794;42.652;23.318;2023-02-28T14:38:46;27.63;;;12.63;;
59008;SDS011;44794;42.652;23.318;2023-02-28T14:41:29;27.17;;;13.65;;
59008;SDS011;44794;42.652;23.318;2023-02-28T14:44:22;30.08;;;13.48;;
59008;SDS011;44794;42.652;23.318;2023-02-28T14:46:56;32.63;;;13.43;;
59008;SDS011;44794;42.652;23.318;2023-02-28T14:49:41;28.13;;;13.60;;
59008;SDS011;44794;42.652;23.318;2023-02-28T14:52:20;29.42;;;12.93;;
59008;SDS011;44794;42.652;23.318;2023-02-28T14:54:46;32.28;;;13.05;;
59008;SDS011;44794;42.652;23.318;2023-02-28T14:57:25;25.67;;;12.82;;
59008;SDS011;44794;42.652;23.318;2023-02-28T15:03:17;32.17;;;13.57;;
59008;SDS011;44794;42.652;23.318;2023-02-28T15:05:55;30.00;;;13.70;;
59008;SDS011;44794;42.652;23.318;2023-02-28T15:08:23;30.90;;;14.05;;
59008;SDS011;44794;42.652;23.318;2023-02-28T15:13:50;33.78;;;14.70;;
59008;SDS011;44794;42.652;23.318;2023-02-28T15:16:41;35.67;;;15.02;;
59008;SDS011;44794;42.652;23.318;2023-02-28T15:21:45;35.50;;;15.38;;
59008;SDS011;44794;42.652;23.318;2023-02-28T15:26:55;32.63;;;14.55;;
59008;SDS011;44794;42.652;23.318;2023-02-28T15:29:24;27.70;;;13.80;;
59008;SDS011;44794;42.652;23.318;2023-02-28T15:32:02;32.17;;;13.75;;
59008;SDS011;44794;42.652;23.318;2023-02-28T15:36:59;32.88;;;14.18;;
59008;SDS011;44794;42.652;23.318;2023-02-28T15:39:25;33.42;;;13.63;;
59008;SDS011;44794;42.652;23.318;2023-02-28T15:42:09;36.78;;;13.93;;
59008;SDS011;44794;42.652;23.318;2023-02-28T15:44:43;37.97;;;14.50;;
59008;SDS011;44794;42.652;23.318;2023-02-28T15:47:19;31.38;;;12.50;;
59008;SDS011;44794;42.652;23.318;2023-02-28T15:50:20;27.30;;;13.68;;
59008;SDS011;44794;42.652;23.318;2023-02-28T15:52:43;32.25;;;14.35;;
59008;SDS011;44794;42.652;23.318;2023-02-28T15:57:38;28.38;;;12.77;;
59008;SDS011;44794;42.652;23.318;2023-02-28T16:00:06;28.13;;;12.15;;
59008;SDS011;44794;42.652;23.318;2023-02-28T16:02:37;24.42;;;12.45;;
59008;SDS011;44794;42.652;23.318;2023-02-28T16:07:38;22.83;;;11.57;;
59008;SDS011;44794;42.652;23.318;2023-02-28T16:12:33;19.15;;;11.00;;
59008;SDS011;44794;42.652;23.318;2023-02-28T16:15:01;23.10;;;11.90;;
59008;SDS011;44794;42.652;23.318;2023-02-28T16:17:35;23.85;;;11.48;;
59008;SDS011;44794;42.652;23.318;2023-02-28T16:22:38;23.52;;;13.38;;
59008;SDS011;44794;42.652;23.318;2023-02-28T16:25:04;20.58;;;11.20;;
59008;SDS011;44794;42.652;23.318;2023-02-28T16:27:34;18.60;;;11.38;;
59008;SDS011;44794;42.652;23.318;2023-02-28T16:30:04;18.27;;;11.65;;
59008;SDS011;44794;42.652;23.318;2023-02-28T16:32:31;22.95;;;13.65;;
59008;SDS011;44794;42.652;23.318;2023-02-28T16:35:00;19.27;;;11.63;;
59008;SDS011;44794;42.652;23.318;2023-02-28T16:37:26;25.98;;;12.82;;
59008;SDS011;44794;42.652;23.318;2023-02-28T16:39:52;22.23;;;11.60;;
59008;SDS011;44794;42.652;23.318;2023-02-28T16:42:23;22.00;;;10.50;;
59008;SDS011;44794;42.652;23.318;2023-02-28T16:44:52;18.63;;;10.88;;
59008;SDS011;44794;42.652;23.318;2023-02-28T16:47:18;20.17;;;9.95;;
59008;SDS011;44794;42.652;23.318;2023-02-28T16:49:44;21.63;;;10.85;;
59008;SDS011;44794;42.652;23.318;2023-02-28T16:52:10;19.20;;;10.57;;
59008;SDS011;44794;42.652;23.318;2023-02-28T16:54:37;16.83;;;9.70;;
59008;SDS011;44794;42.652;23.318;2023-02-28T16:57:03;16.73;;;9.00;;
59008;SDS011;44794;42.652;23.318;2023-02-28T16:59:30;21.75;;;10.32;;
59008;SDS011;44794;42.652;23.318;2023-02-28T17:01:57;17.67;;;9.70;;
59008;SDS011;44794;42.652;23.318;2023-02-28T17:04:24;20.15;;;11.05;;
59008;SDS011;44794;42.652;23.318;2023-02-28T17:06:51;24.45;;;11.88;;
59008;SDS011;44794;42.652;23.318;2023-02-28T17:09:18;32.40;;;16.10;;
59008;SDS011;44794;42.652;23.318;2023-02-28T17:11:45;19.42;;;10.95;;
59008;SDS011;44794;42.652;23.318;2023-02-28T17:14:11;29.05;;;14.40;;
59008;SDS011;44794;42.652;23.318;2023-02-28T17:16:38;34.38;;;16.38;;
59008;SDS011;44794;42.652;23.318;2023-02-28T17:19:09;28.58;;;13.77;;
59008;SDS011;44794;42.652;23.318;2023-02-28T17:21:38;32.35;;;15.18;;
59008;SDS011;44794;42.652;23.318;2023-02-28T17:24:04;18.98;;;8.95;;
59008;SDS011;44794;42.652;23.318;2023-02-28T17:26:30;21.52;;;9.65;;